sensor_id;sensor_type;location;lat;lon;timestamp;temperature;humidity
34989;DHT22;21192;40.182;44.516;2023-04-06T00:01:37;14.00;95.90
34989;DHT22;21192;40.182;44.516;2023-04-06T00:04:03;14.10;96.10
34989;DHT22;21192;40.182;44.516;2023-04-06T00:06:29;14.20;96.00
34989;DHT22;21192;40.182;44.516;2023-04-06T00:08:55;14.30;95.70
34989;DHT22;21192;40.182;44.516;2023-04-06T00:11:22;14.40;95.50
34989;DHT22;21192;40.182;44.516;2023-04-06T00:13:48;14.40;95.30
34989;DHT22;21192;40.182;44.516;2023-04-06T00:16:14;14.40;94.90
34989;DHT22;21192;40.182;44.516;2023-04-06T00:18:40;14.40;94.80
34989;DHT22;21192;40.182;44.516;2023-04-06T00:21:06;14.50;94.80
34989;DHT22;21192;40.182;44.516;2023-04-06T00:23:31;14.60;94.60
34989;DHT22;21192;40.182;44.516;2023-04-06T00:25:57;14.70;94.60
34989;DHT22;21192;40.182;44.516;2023-04-06T00:28:23;14.80;94.30
34989;DHT22;21192;40.182;44.516;2023-04-06T00:30:53;14.80;94.00
34989;DHT22;21192;40.182;44.516;2023-04-06T00:33:21;14.80;93.90
34989;DHT22;21192;40.182;44.516;2023-04-06T00:35:47;14.80;93.90
34989;DHT22;21192;40.182;44.516;2023-04-06T00:38:13;14.90;94.30
34989;DHT22;21192;40.182;44.516;2023-04-06T00:40:39;14.90;94.60
34989;DHT22;21192;40.182;44.516;2023-04-06T00:43:07;14.90;94.50
34989;DHT22;21192;40.182;44.516;2023-04-06T00:45:38;15.00;94.00
34989;DHT22;21192;40.182;44.516;2023-04-06T00:48:05;15.00;93.80
34989;DHT22;21192;40.182;44.516;2023-04-06T00:50:31;15.10;93.70
34989;DHT22;21192;40.182;44.516;2023-04-06T00:52:58;15.20;93.50
34989;DHT22;21192;40.182;44.516;2023-04-06T00:55:24;15.20;93.40
34989;DHT22;21192;40.182;44.516;2023-04-06T00:57:50;15.20;93.50
34989;DHT22;21192;40.182;44.516;2023-04-06T01:00:17;15.20;93.50
34989;DHT22;21192;40.182;44.516;2023-04-06T01:02:43;15.20;93.40
34989;DHT22;21192;40.182;44.516;2023-04-06T01:05:10;15.30;93.30
34989;DHT22;21192;40.182;44.516;2023-04-06T01:07:36;15.30;93.20
34989;DHT22;21192;40.182;44.516;2023-04-06T01:10:03;15.30;93.20
34989;DHT22;21192;40.182;44.516;2023-04-06T01:12:29;15.20;93.30
34989;DHT22;21192;40.182;44.516;2023-04-06T01:14:55;15.20;93.30
34989;DHT22;21192;40.182;44.516;2023-04-06T01:17:21;15.20;93.20
34989;DHT22;21192;40.182;44.516;2023-04-06T01:19:47;15.20;93.20
34989;DHT22;21192;40.182;44.516;2023-04-06T01:22:18;15.10;93.40
34989;DHT22;21192;40.182;44.516;2023-04-06T01:24:45;15.10;93.60
34989;DHT22;21192;40.182;44.516;2023-04-06T01:27:11;15.10;93.70
34989;DHT22;21192;40.182;44.516;2023-04-06T01:29:38;15.10;93.50
34989;DHT22;21192;40.182;44.516;2023-04-06T01:32:07;15.00;93.20
34989;DHT22;21192;40.182;44.516;2023-04-06T01:34:33;15.00;93.00
34989;DHT22;21192;40.182;44.516;2023-04-06T01:36:59;15.00;92.50
34989;DHT22;21192;40.182;44.516;2023-04-06T01:39:25;14.90;91.90
34989;DHT22;21192;40.182;44.516;2023-04-06T01:41:50;14.90;91.50
34989;DHT22;21192;40.182;44.516;2023-04-06T01:44:17;14.90;91.60
34989;DHT22;21192;40.182;44.516;2023-04-06T01:46:46;14.90;91.90
34989;DHT22;21192;40.182;44.516;2023-04-06T01:49:12;14.90;92.10
34989;DHT22;21192;40.182;44.516;2023-04-06T01:51:38;14.90;92.20
34989;DHT22;21192;40.182;44.516;2023-04-06T01:54:04;14.90;92.20
34989;DHT22;21192;40.182;44.516;2023-04-06T01:56:30;14.90;92.20
34989;DHT22;21192;40.182;44.516;2023-04-06T01:58:56;14.80;91.90
34989;DHT22;21192;40.182;44.516;2023-04-06T02:01:22;14.80;91.40
34989;DHT22;21192;40.182;44.516;2023-04-06T02:03:48;14.80;91.20
34989;DHT22;21192;40.182;44.516;2023-04-06T02:06:13;14.80;91.20
34989;DHT22;21192;40.182;44.516;2023-04-06T02:08:39;14.80;91.30
34989;DHT22;21192;40.182;44.516;2023-04-06T02:11:07;14.80;91.70
34989;DHT22;21192;40.182;44.516;2023-04-06T02:13:33;14.80;92.00
34989;DHT22;21192;40.182;44.516;2023-04-06T02:15:59;14.80;92.30
34989;DHT22;21192;40.182;44.516;2023-04-06T02:18:24;14.80;92.60
34989;DHT22;21192;40.182;44.516;2023-04-06T02:20:50;14.80;92.70
34989;DHT22;21192;40.182;44.516;2023-04-06T02:23:16;14.70;92.80
34989;DHT22;21192;40.182;44.516;2023-04-06T02:25:42;14.70;92.70
34989;DHT22;21192;40.182;44.516;2023-04-06T02:28:08;14.70;92.50
34989;DHT22;21192;40.182;44.516;2023-04-06T02:30:34;14.70;92.30
34989;DHT22;21192;40.182;44.516;2023-04-06T02:33:00;14.70;92.10
34989;DHT22;21192;40.182;44.516;2023-04-06T02:35:28;14.70;92.10
34989;DHT22;21192;40.182;44.516;2023-04-06T02:37:54;14.70;92.00
34989;DHT22;21192;40.182;44.516;2023-04-06T02:40:20;14.60;92.00
34989;DHT22;21192;40.182;44.516;2023-04-06T02:42:46;14.50;92.30
34989;DHT22;21192;40.182;44.516;2023-04-06T02:45:12;14.50;92.40
34989;DHT22;21192;40.182;44.516;2023-04-06T02:47:38;14.50;92.60
34989;DHT22;21192;40.182;44.516;2023-04-06T02:50:04;14.40;92.80
34989;DHT22;21192;40.182;44.516;2023-04-06T02:52:31;14.40;92.90
34989;DHT22;21192;40.182;44.516;2023-04-06T02:54:57;14.50;92.90
34989;DHT22;21192;40.182;44.516;2023-04-06T02:57:23;14.50;92.70
34989;DHT22;21192;40.182;44.516;2023-04-06T02:59:49;14.50;92.60
34989;DHT22;21192;40.182;44.516;2023-04-06T03:02:15;14.40;92.70
34989;DHT22;21192;40.182;44.516;2023-04-06T03:04:41;14.40;92.70
34989;DHT22;21192;40.182;44.516;2023-04-06T03:07:07;14.50;92.80
34989;DHT22;21192;40.182;44.516;2023-04-06T03:09:33;14.50;92.80
34989;DHT22;21192;40.182;44.516;2023-04-06T03:11:59;14.50;92.90
34989;DHT22;21192;40.182;44.516;2023-04-06T03:14:27;14.60;93.00
34989;DHT22;21192;40.182;44.516;2023-04-06T03:16:53;14.70;93.00
34989;DHT22;21192;40.182;44.516;2023-04-06T03:19:19;14.80;92.90
34989;DHT22;21192;40.182;44.516;2023-04-06T03:21:45;14.90;92.50
34989;DHT22;21192;40.182;44.516;2023-04-06T03:24:11;15.00;91.90
34989;DHT22;21192;40.182;44.516;2023-04-06T03:26:39;15.00;91.50
34989;DHT22;21192;40.182;44.516;2023-04-06T03:29:05;15.00;91.30
34989;DHT22;21192;40.182;44.516;2023-04-06T03:31:31;15.00;91.00
34989;DHT22;21192;40.182;44.516;2023-04-06T03:33:57;15.00;90.90
34989;DHT22;21192;40.182;44.516;2023-04-06T03:36:22;15.00;90.80
34989;DHT22;21192;40.182;44.516;2023-04-06T03:38:48;15.00;90.70
34989;DHT22;21192;40.182;44.516;2023-04-06T03:41:14;15.00;90.50
34989;DHT22;21192;40.182;44.516;2023-04-06T03:43:40;15.10;90.40
34989;DHT22;21192;40.182;44.516;2023-04-06T03:46:06;15.70;90.10
34989;DHT22;21192;40.182;44.516;2023-04-06T03:48:31;17.30;88.00
34989;DHT22;21192;40.182;44.516;2023-04-06T03:50:57;18.80;82.90
34989;DHT22;21192;40.182;44.516;2023-04-06T03:53:23;20.40;77.00
34989;DHT22;21192;40.182;44.516;2023-04-06T03:55:49;21.90;70.80
34989;DHT22;21192;40.182;44.516;2023-04-06T03:58:15;23.20;63.90
34989;DHT22;21192;40.182;44.516;2023-04-06T04:00:41;24.40;58.80
34989;DHT22;21192;40.182;44.516;2023-04-06T04:03:06;25.50;55.30
34989;DHT22;21192;40.182;44.516;2023-04-06T04:05:32;26.30;52.80
34989;DHT22;21192;40.182;44.516;2023-04-06T04:07:58;27.30;50.50
34989;DHT22;21192;40.182;44.516;2023-04-06T04:10:24;28.10;48.30
34989;DHT22;21192;40.182;44.516;2023-04-06T04:12:50;28.70;46.50
34989;DHT22;21192;40.182;44.516;2023-04-06T04:15:16;29.00;45.20
34989;DHT22;21192;40.182;44.516;2023-04-06T04:17:42;29.60;44.00
34989;DHT22;21192;40.182;44.516;2023-04-06T04:20:12;29.40;43.20
34989;DHT22;21192;40.182;44.516;2023-04-06T04:22:38;29.80;42.80
34989;DHT22;21192;40.182;44.516;2023-04-06T04:25:04;30.40;42.40
34989;DHT22;21192;40.182;44.516;2023-04-06T04:27:30;29.70;42.40
34989;DHT22;21192;40.182;44.516;2023-04-06T04:29:55;28.00;44.30
34989;DHT22;21192;40.182;44.516;2023-04-06T04:32:21;26.70;46.60
34989;DHT22;21192;40.182;44.516;2023-04-06T04:34:47;25.50;48.50
34989;DHT22;21192;40.182;44.516;2023-04-06T04:37:13;25.20;50.00
34989;DHT22;21192;40.182;44.516;2023-04-06T04:39:39;25.30;50.60
34989;DHT22;21192;40.182;44.516;2023-04-06T04:42:05;24.90;51.00
34989;DHT22;21192;40.182;44.516;2023-04-06T04:44:31;26.00;50.50
34989;DHT22;21192;40.182;44.516;2023-04-06T04:46:56;27.50;48.90
34989;DHT22;21192;40.182;44.516;2023-04-06T04:49:22;26.90;47.80
34989;DHT22;21192;40.182;44.516;2023-04-06T04:51:48;26.40;48.40
34989;DHT22;21192;40.182;44.516;2023-04-06T04:54:17;27.60;48.20
34989;DHT22;21192;40.182;44.516;2023-04-06T04:56:42;29.10;46.40
34989;DHT22;21192;40.182;44.516;2023-04-06T04:59:08;30.60;44.60
34989;DHT22;21192;40.182;44.516;2023-04-06T05:01:34;31.80;42.70
34989;DHT22;21192;40.182;44.516;2023-04-06T05:04:00;33.10;40.80
34989;DHT22;21192;40.182;44.516;2023-04-06T05:06:26;34.40;39.10
34989;DHT22;21192;40.182;44.516;2023-04-06T05:08:52;34.80;37.70
34989;DHT22;21192;40.182;44.516;2023-04-06T05:11:18;35.60;36.60
34989;DHT22;21192;40.182;44.516;2023-04-06T05:13:44;36.00;35.70
34989;DHT22;21192;40.182;44.516;2023-04-06T05:16:10;36.30;34.90
34989;DHT22;21192;40.182;44.516;2023-04-06T05:18:36;36.80;34.20
34989;DHT22;21192;40.182;44.516;2023-04-06T05:21:02;37.30;33.30
34989;DHT22;21192;40.182;44.516;2023-04-06T05:23:28;37.60;32.20
34989;DHT22;21192;40.182;44.516;2023-04-06T05:25:54;38.10;31.50
34989;DHT22;21192;40.182;44.516;2023-04-06T05:28:20;38.40;31.20
34989;DHT22;21192;40.182;44.516;2023-04-06T05:30:45;38.60;31.00
34989;DHT22;21192;40.182;44.516;2023-04-06T05:33:11;38.50;30.50
34989;DHT22;21192;40.182;44.516;2023-04-06T05:35:37;38.90;30.30
34989;DHT22;21192;40.182;44.516;2023-04-06T05:38:05;38.90;29.80
34989;DHT22;21192;40.182;44.516;2023-04-06T05:40:31;38.40;30.00
34989;DHT22;21192;40.182;44.516;2023-04-06T05:42:57;37.40;30.00
34989;DHT22;21192;40.182;44.516;2023-04-06T05:45:23;36.60;31.00
34989;DHT22;21192;40.182;44.516;2023-04-06T05:47:49;35.20;31.90
34989;DHT22;21192;40.182;44.516;2023-04-06T05:50:15;33.80;32.90
34989;DHT22;21192;40.182;44.516;2023-04-06T05:52:41;32.80;33.90
34989;DHT22;21192;40.182;44.516;2023-04-06T05:55:09;31.50;35.00
34989;DHT22;21192;40.182;44.516;2023-04-06T05:57:36;30.70;35.70
34989;DHT22;21192;40.182;44.516;2023-04-06T06:00:02;29.90;36.10
34989;DHT22;21192;40.182;44.516;2023-04-06T06:02:30;29.20;36.50
34989;DHT22;21192;40.182;44.516;2023-04-06T06:04:57;28.80;37.20
34989;DHT22;21192;40.182;44.516;2023-04-06T06:07:23;28.50;37.60
34989;DHT22;21192;40.182;44.516;2023-04-06T06:09:49;27.90;37.80
34989;DHT22;21192;40.182;44.516;2023-04-06T06:12:15;27.30;38.20
34989;DHT22;21192;40.182;44.516;2023-04-06T06:14:41;26.50;38.80
34989;DHT22;21192;40.182;44.516;2023-04-06T06:17:07;25.90;39.50
34989;DHT22;21192;40.182;44.516;2023-04-06T06:19:33;25.30;40.00
34989;DHT22;21192;40.182;44.516;2023-04-06T06:21:59;24.80;40.70
34989;DHT22;21192;40.182;44.516;2023-04-06T06:24:27;24.60;41.00
34989;DHT22;21192;40.182;44.516;2023-04-06T06:26:53;24.60;40.70
34989;DHT22;21192;40.182;44.516;2023-04-06T06:29:19;24.70;40.70
34989;DHT22;21192;40.182;44.516;2023-04-06T06:31:45;24.60;41.00
34989;DHT22;21192;40.182;44.516;2023-04-06T06:34:11;24.50;41.00
34989;DHT22;21192;40.182;44.516;2023-04-06T06:36:38;24.40;41.20
34989;DHT22;21192;40.182;44.516;2023-04-06T06:39:04;24.30;41.20
34989;DHT22;21192;40.182;44.516;2023-04-06T06:41:30;24.30;41.40
34989;DHT22;21192;40.182;44.516;2023-04-06T06:43:55;24.00;41.90
34989;DHT22;21192;40.182;44.516;2023-04-06T06:46:21;23.70;42.60
34989;DHT22;21192;40.182;44.516;2023-04-06T06:48:47;23.60;43.00
34989;DHT22;21192;40.182;44.516;2023-04-06T06:51:13;23.30;43.40
34989;DHT22;21192;40.182;44.516;2023-04-06T06:53:39;23.40;43.70
34989;DHT22;21192;40.182;44.516;2023-04-06T06:56:05;23.30;43.00
34989;DHT22;21192;40.182;44.516;2023-04-06T06:58:31;23.20;42.70
34989;DHT22;21192;40.182;44.516;2023-04-06T07:00:57;23.40;42.60
34989;DHT22;21192;40.182;44.516;2023-04-06T07:03:24;23.60;42.40
34989;DHT22;21192;40.182;44.516;2023-04-06T07:05:51;23.60;42.10
34989;DHT22;21192;40.182;44.516;2023-04-06T07:08:23;23.50;42.60
34989;DHT22;21192;40.182;44.516;2023-04-06T07:10:51;23.70;41.90
34989;DHT22;21192;40.182;44.516;2023-04-06T07:13:23;23.70;41.70
34989;DHT22;21192;40.182;44.516;2023-04-06T07:15:50;23.40;41.50
34989;DHT22;21192;40.182;44.516;2023-04-06T07:18:17;23.30;44.30
34989;DHT22;21192;40.182;44.516;2023-04-06T07:20:43;23.10;43.50
34989;DHT22;21192;40.182;44.516;2023-04-06T07:23:09;22.90;43.70
34989;DHT22;21192;40.182;44.516;2023-04-06T07:25:35;22.80;43.00
34989;DHT22;21192;40.182;44.516;2023-04-06T07:28:02;22.80;42.60
34989;DHT22;21192;40.182;44.516;2023-04-06T07:30:28;22.90;42.10
34989;DHT22;21192;40.182;44.516;2023-04-06T07:32:54;23.00;41.80
34989;DHT22;21192;40.182;44.516;2023-04-06T07:35:22;22.90;41.70
34989;DHT22;21192;40.182;44.516;2023-04-06T07:37:48;22.80;41.70
34989;DHT22;21192;40.182;44.516;2023-04-06T07:40:14;22.70;41.60
34989;DHT22;21192;40.182;44.516;2023-04-06T07:42:40;22.40;41.00
34989;DHT22;21192;40.182;44.516;2023-04-06T07:45:06;22.30;41.10
34989;DHT22;21192;40.182;44.516;2023-04-06T07:47:33;22.30;40.40
34989;DHT22;21192;40.182;44.516;2023-04-06T07:49:59;22.20;40.10
34989;DHT22;21192;40.182;44.516;2023-04-06T07:52:25;22.20;40.20
34989;DHT22;21192;40.182;44.516;2023-04-06T07:54:51;22.10;40.00
34989;DHT22;21192;40.182;44.516;2023-04-06T07:57:17;22.00;40.50
34989;DHT22;21192;40.182;44.516;2023-04-06T07:59:43;21.90;40.50
34989;DHT22;21192;40.182;44.516;2023-04-06T08:02:09;21.70;40.50
34989;DHT22;21192;40.182;44.516;2023-04-06T08:04:35;21.70;40.30
34989;DHT22;21192;40.182;44.516;2023-04-06T08:07:01;21.70;40.00
34989;DHT22;21192;40.182;44.516;2023-04-06T08:09:27;21.60;41.10
34989;DHT22;21192;40.182;44.516;2023-04-06T08:11:53;21.70;43.80
34989;DHT22;21192;40.182;44.516;2023-04-06T08:14:19;21.80;42.60
34989;DHT22;21192;40.182;44.516;2023-04-06T08:16:45;21.90;42.20
34989;DHT22;21192;40.182;44.516;2023-04-06T08:19:11;21.90;41.40
34989;DHT22;21192;40.182;44.516;2023-04-06T08:21:37;21.90;40.70
34989;DHT22;21192;40.182;44.516;2023-04-06T08:24:03;21.90;40.80
34989;DHT22;21192;40.182;44.516;2023-04-06T08:26:29;22.00;40.80
34989;DHT22;21192;40.182;44.516;2023-04-06T08:28:55;21.90;40.20
34989;DHT22;21192;40.182;44.516;2023-04-06T08:31:21;21.80;39.90
34989;DHT22;21192;40.182;44.516;2023-04-06T08:33:47;21.60;40.00
34989;DHT22;21192;40.182;44.516;2023-04-06T08:36:14;21.50;41.10
34989;DHT22;21192;40.182;44.516;2023-04-06T08:38:41;21.40;41.30
34989;DHT22;21192;40.182;44.516;2023-04-06T08:41:09;21.30;41.60
34989;DHT22;21192;40.182;44.516;2023-04-06T08:43:51;21.40;41.70
34989;DHT22;21192;40.182;44.516;2023-04-06T08:46:19;21.50;41.60
34989;DHT22;21192;40.182;44.516;2023-04-06T08:48:45;21.50;41.60
34989;DHT22;21192;40.182;44.516;2023-04-06T08:51:15;21.60;41.30
34989;DHT22;21192;40.182;44.516;2023-04-06T08:53:41;21.60;40.90
34989;DHT22;21192;40.182;44.516;2023-04-06T08:56:07;21.60;40.10
34989;DHT22;21192;40.182;44.516;2023-04-06T08:58:39;21.60;40.20
34989;DHT22;21192;40.182;44.516;2023-04-06T09:01:10;21.60;39.90
34989;DHT22;21192;40.182;44.516;2023-04-06T09:03:39;21.40;39.90
34989;DHT22;21192;40.182;44.516;2023-04-06T09:06:06;21.40;40.20
34989;DHT22;21192;40.182;44.516;2023-04-06T09:08:39;21.40;40.10
34989;DHT22;21192;40.182;44.516;2023-04-06T09:11:06;21.40;40.20
34989;DHT22;21192;40.182;44.516;2023-04-06T09:13:43;21.30;40.30
34989;DHT22;21192;40.182;44.516;2023-04-06T09:16:10;21.20;40.20
34989;DHT22;21192;40.182;44.516;2023-04-06T09:18:35;21.10;40.20
34989;DHT22;21192;40.182;44.516;2023-04-06T09:21:03;21.20;40.30
34989;DHT22;21192;40.182;44.516;2023-04-06T09:23:29;21.20;40.50
34989;DHT22;21192;40.182;44.516;2023-04-06T09:26:16;21.20;40.70
34989;DHT22;21192;40.182;44.516;2023-04-06T09:31:15;21.10;41.40
34989;DHT22;21192;40.182;44.516;2023-04-06T09:33:43;21.20;41.70
34989;DHT22;21192;40.182;44.516;2023-04-06T09:36:10;21.00;42.00
34989;DHT22;21192;40.182;44.516;2023-04-06T09:38:55;20.90;42.50
34989;DHT22;21192;40.182;44.516;2023-04-06T09:41:26;20.70;42.30
34989;DHT22;21192;40.182;44.516;2023-04-06T09:44:01;20.60;42.60
34989;DHT22;21192;40.182;44.516;2023-04-06T09:46:27;20.80;42.60
34989;DHT22;21192;40.182;44.516;2023-04-06T09:48:57;20.90;42.60
34989;DHT22;21192;40.182;44.516;2023-04-06T09:51:24;20.80;42.60
34989;DHT22;21192;40.182;44.516;2023-04-06T09:53:55;20.90;42.70
34989;DHT22;21192;40.182;44.516;2023-04-06T09:56:28;21.00;42.10
34989;DHT22;21192;40.182;44.516;2023-04-06T09:59:02;21.10;41.50
34989;DHT22;21192;40.182;44.516;2023-04-06T10:01:32;21.30;41.60
34989;DHT22;21192;40.182;44.516;2023-04-06T10:04:43;21.40;41.50
34989;DHT22;21192;40.182;44.516;2023-04-06T10:07:08;21.40;41.40
34989;DHT22;21192;40.182;44.516;2023-04-06T10:09:37;21.30;41.00
34989;DHT22;21192;40.182;44.516;2023-04-06T10:12:07;21.10;41.10
34989;DHT22;21192;40.182;44.516;2023-04-06T10:14:34;21.00;41.40
34989;DHT22;21192;40.182;44.516;2023-04-06T10:17:05;21.10;41.70
34989;DHT22;21192;40.182;44.516;2023-04-06T10:20:07;21.30;41.80
34989;DHT22;21192;40.182;44.516;2023-04-06T10:23:00;21.40;41.90
34989;DHT22;21192;40.182;44.516;2023-04-06T10:25:30;21.40;41.80
34989;DHT22;21192;40.182;44.516;2023-04-06T10:30:28;21.70;41.30
34989;DHT22;21192;40.182;44.516;2023-04-06T10:32:54;21.70;41.30
34989;DHT22;21192;40.182;44.516;2023-04-06T10:35:20;21.70;41.50
34989;DHT22;21192;40.182;44.516;2023-04-06T10:38:06;21.60;41.80
34989;DHT22;21192;40.182;44.516;2023-04-06T10:40:36;21.70;41.90
34989;DHT22;21192;40.182;44.516;2023-04-06T10:43:12;21.50;42.40
34989;DHT22;21192;40.182;44.516;2023-04-06T10:45:39;21.40;42.90
34989;DHT22;21192;40.182;44.516;2023-04-06T10:48:18;21.40;43.00
34989;DHT22;21192;40.182;44.516;2023-04-06T10:50:48;21.50;43.00
34989;DHT22;21192;40.182;44.516;2023-04-06T10:53:22;21.40;42.00
34989;DHT22;21192;40.182;44.516;2023-04-06T10:55:50;21.30;41.60
34989;DHT22;21192;40.182;44.516;2023-04-06T10:58:16;21.30;41.60
34989;DHT22;21192;40.182;44.516;2023-04-06T11:00:46;21.40;41.40
34989;DHT22;21192;40.182;44.516;2023-04-06T11:03:12;21.60;41.30
34989;DHT22;21192;40.182;44.516;2023-04-06T11:05:38;21.70;41.40
34989;DHT22;21192;40.182;44.516;2023-04-06T11:08:08;21.80;41.30
34989;DHT22;21192;40.182;44.516;2023-04-06T11:10:34;21.90;41.40
34989;DHT22;21192;40.182;44.516;2023-04-06T11:13:00;21.90;41.70
34989;DHT22;21192;40.182;44.516;2023-04-06T11:15:26;22.00;41.60
34989;DHT22;21192;40.182;44.516;2023-04-06T11:17:52;22.00;41.50
34989;DHT22;21192;40.182;44.516;2023-04-06T11:20:18;22.00;41.40
34989;DHT22;21192;40.182;44.516;2023-04-06T11:22:51;21.90;41.20
34989;DHT22;21192;40.182;44.516;2023-04-06T11:25:17;21.90;41.00
34989;DHT22;21192;40.182;44.516;2023-04-06T11:27:44;21.90;40.90
34989;DHT22;21192;40.182;44.516;2023-04-06T11:30:11;22.00;40.60
34989;DHT22;21192;40.182;44.516;2023-04-06T11:32:44;22.00;40.50
34989;DHT22;21192;40.182;44.516;2023-04-06T11:35:14;22.20;40.20
34989;DHT22;21192;40.182;44.516;2023-04-06T11:37:45;22.30;39.40
34989;DHT22;21192;40.182;44.516;2023-04-06T11:40:11;22.20;38.90
34989;DHT22;21192;40.182;44.516;2023-04-06T11:42:37;22.10;39.50
34989;DHT22;21192;40.182;44.516;2023-04-06T11:45:03;22.10;39.80
34989;DHT22;21192;40.182;44.516;2023-04-06T11:47:35;22.20;39.60
34989;DHT22;21192;40.182;44.516;2023-04-06T11:50:14;22.30;39.40
34989;DHT22;21192;40.182;44.516;2023-04-06T11:52:41;22.20;39.30
34989;DHT22;21192;40.182;44.516;2023-04-06T11:55:14;22.30;39.50
34989;DHT22;21192;40.182;44.516;2023-04-06T11:57:41;22.40;39.50
34989;DHT22;21192;40.182;44.516;2023-04-06T12:00:08;22.50;39.50
34989;DHT22;21192;40.182;44.516;2023-04-06T12:02:35;22.60;39.60
34989;DHT22;21192;40.182;44.516;2023-04-06T12:05:03;22.70;39.60
34989;DHT22;21192;40.182;44.516;2023-04-06T12:07:29;22.70;40.70
34989;DHT22;21192;40.182;44.516;2023-04-06T12:09:56;22.70;40.20
34989;DHT22;21192;40.182;44.516;2023-04-06T12:12:22;22.70;39.80
34989;DHT22;21192;40.182;44.516;2023-04-06T12:14:47;22.70;40.90
34989;DHT22;21192;40.182;44.516;2023-04-06T12:17:13;22.60;40.60
34989;DHT22;21192;40.182;44.516;2023-04-06T12:19:39;22.50;40.40
34989;DHT22;21192;40.182;44.516;2023-04-06T12:22:06;22.30;39.70
34989;DHT22;21192;40.182;44.516;2023-04-06T12:24:31;22.20;39.60
34989;DHT22;21192;40.182;44.516;2023-04-06T12:26:57;22.20;39.70
34989;DHT22;21192;40.182;44.516;2023-04-06T12:29:24;22.10;39.80
34989;DHT22;21192;40.182;44.516;2023-04-06T12:31:51;22.20;40.00
34989;DHT22;21192;40.182;44.516;2023-04-06T12:34:17;22.20;39.90
34989;DHT22;21192;40.182;44.516;2023-04-06T12:36:43;22.10;40.00
34989;DHT22;21192;40.182;44.516;2023-04-06T12:39:09;21.90;40.40
34989;DHT22;21192;40.182;44.516;2023-04-06T12:41:35;21.90;40.50
34989;DHT22;21192;40.182;44.516;2023-04-06T12:44:01;21.70;40.80
34989;DHT22;21192;40.182;44.516;2023-04-06T12:46:27;21.60;41.10
34989;DHT22;21192;40.182;44.516;2023-04-06T12:48:56;21.50;41.20
34989;DHT22;21192;40.182;44.516;2023-04-06T12:51:23;21.40;40.60
34989;DHT22;21192;40.182;44.516;2023-04-06T12:53:49;21.40;40.10
34989;DHT22;21192;40.182;44.516;2023-04-06T12:56:17;21.40;39.90
34989;DHT22;21192;40.182;44.516;2023-04-06T12:58:44;21.30;40.00
34989;DHT22;21192;40.182;44.516;2023-04-06T13:01:11;21.30;40.30
34989;DHT22;21192;40.182;44.516;2023-04-06T13:03:39;21.20;40.70
34989;DHT22;21192;40.182;44.516;2023-04-06T13:06:05;21.20;40.90
34989;DHT22;21192;40.182;44.516;2023-04-06T13:08:31;21.10;41.10
34989;DHT22;21192;40.182;44.516;2023-04-06T13:10:57;21.10;41.30
34989;DHT22;21192;40.182;44.516;2023-04-06T13:13:24;21.10;41.30
34989;DHT22;21192;40.182;44.516;2023-04-06T13:15:52;21.00;41.30
34989;DHT22;21192;40.182;44.516;2023-04-06T13:18:18;21.00;41.30
34989;DHT22;21192;40.182;44.516;2023-04-06T13:20:44;21.00;41.40
34989;DHT22;21192;40.182;44.516;2023-04-06T13:23:10;20.90;41.40
34989;DHT22;21192;40.182;44.516;2023-04-06T13:25:37;20.80;41.50
34989;DHT22;21192;40.182;44.516;2023-04-06T13:28:03;20.80;41.60
34989;DHT22;21192;40.182;44.516;2023-04-06T13:30:29;20.80;42.10
34989;DHT22;21192;40.182;44.516;2023-04-06T13:32:54;20.70;41.50
34989;DHT22;21192;40.182;44.516;2023-04-06T13:35:20;20.60;41.50
34989;DHT22;21192;40.182;44.516;2023-04-06T13:37:46;20.50;41.70
34989;DHT22;21192;40.182;44.516;2023-04-06T13:40:13;20.50;41.80
34989;DHT22;21192;40.182;44.516;2023-04-06T13:42:39;20.50;41.90
34989;DHT22;21192;40.182;44.516;2023-04-06T13:45:07;20.40;42.20
34989;DHT22;21192;40.182;44.516;2023-04-06T13:47:33;20.20;44.00
34989;DHT22;21192;40.182;44.516;2023-04-06T13:49:59;20.10;45.90
34989;DHT22;21192;40.182;44.516;2023-04-06T13:52:24;20.00;47.20
34989;DHT22;21192;40.182;44.516;2023-04-06T13:54:50;19.90;48.00
34989;DHT22;21192;40.182;44.516;2023-04-06T13:57:16;20.00;48.80
34989;DHT22;21192;40.182;44.516;2023-04-06T13:59:42;19.90;49.10
34989;DHT22;21192;40.182;44.516;2023-04-06T14:02:10;19.90;49.40
34989;DHT22;21192;40.182;44.516;2023-04-06T14:04:36;19.80;49.30
34989;DHT22;21192;40.182;44.516;2023-04-06T14:07:03;19.80;49.70
34989;DHT22;21192;40.182;44.516;2023-04-06T14:09:29;19.80;48.80
34989;DHT22;21192;40.182;44.516;2023-04-06T14:11:56;19.80;48.70
34989;DHT22;21192;40.182;44.516;2023-04-06T14:14:23;19.70;48.60
34989;DHT22;21192;40.182;44.516;2023-04-06T14:16:49;19.60;48.80
34989;DHT22;21192;40.182;44.516;2023-04-06T14:19:16;19.60;49.00
34989;DHT22;21192;40.182;44.516;2023-04-06T14:21:47;19.50;49.30
34989;DHT22;21192;40.182;44.516;2023-04-06T14:24:14;19.50;49.70
34989;DHT22;21192;40.182;44.516;2023-04-06T14:26:41;19.50;49.90
34989;DHT22;21192;40.182;44.516;2023-04-06T14:29:08;19.50;50.10
34989;DHT22;21192;40.182;44.516;2023-04-06T14:31:34;19.50;50.20
34989;DHT22;21192;40.182;44.516;2023-04-06T14:34:02;19.50;50.50
34989;DHT22;21192;40.182;44.516;2023-04-06T14:36:31;19.40;50.80
34989;DHT22;21192;40.182;44.516;2023-04-06T14:39:02;19.30;51.00
34989;DHT22;21192;40.182;44.516;2023-04-06T14:41:30;19.30;51.20
34989;DHT22;21192;40.182;44.516;2023-04-06T14:43:56;19.10;51.50
34989;DHT22;21192;40.182;44.516;2023-04-06T14:46:22;19.10;51.90
34989;DHT22;21192;40.182;44.516;2023-04-06T14:48:48;19.00;52.10
34989;DHT22;21192;40.182;44.516;2023-04-06T14:51:14;19.00;52.40
34989;DHT22;21192;40.182;44.516;2023-04-06T14:53:40;18.90;52.60
34989;DHT22;21192;40.182;44.516;2023-04-06T14:56:06;18.80;52.90
34989;DHT22;21192;40.182;44.516;2023-04-06T14:58:32;18.70;53.00
34989;DHT22;21192;40.182;44.516;2023-04-06T15:00:59;18.60;53.00
34989;DHT22;21192;40.182;44.516;2023-04-06T15:03:26;18.60;53.00
34989;DHT22;21192;40.182;44.516;2023-04-06T15:05:53;18.40;52.90
34989;DHT22;21192;40.182;44.516;2023-04-06T15:08:19;18.10;53.30
34989;DHT22;21192;40.182;44.516;2023-04-06T15:10:48;17.80;53.80
34989;DHT22;21192;40.182;44.516;2023-04-06T15:13:14;17.60;54.90
34989;DHT22;21192;40.182;44.516;2023-04-06T15:15:41;17.40;54.90
34989;DHT22;21192;40.182;44.516;2023-04-06T15:18:08;17.20;55.70
34989;DHT22;21192;40.182;44.516;2023-04-06T15:20:34;17.10;56.40